createdAt,value
2018-10-11T00:00:25.346Z,0.30
2018-10-11T00:02:54.428Z,0.50
2018-10-11T00:05:23.212Z,0.70
2018-10-11T00:07:52.054Z,0.60
2018-10-11T00:10:20.909Z,0.67
2018-10-11T00:12:50.014Z,0.80
2018-10-11T00:15:19.518Z,0.50
2018-10-11T00:17:48.378Z,0.80
2018-10-11T00:20:17.151Z,0.50
2018-10-11T00:22:46.138Z,1.10
2018-10-11T00:25:14.876Z,0.53
2018-10-11T00:27:43.642Z,0.50
2018-10-11T00:30:12.477Z,0.60
2018-10-11T00:32:41.672Z,0.47
2018-10-11T00:35:10.341Z,0.47
2018-10-11T00:37:39.130Z,0.50
2018-10-11T00:40:09.266Z,0.40
2018-10-11T00:42:38.327Z,0.50
2018-10-11T00:45:07.157Z,0.70
2018-10-11T00:47:35.876Z,0.77
2018-10-11T00:50:04.620Z,0.90
2018-10-11T00:52:33.657Z,0.60
2018-10-11T00:55:02.356Z,0.60
2018-10-11T00:57:31.079Z,0.63
2018-10-11T01:00:00.085Z,0.40
2018-10-11T01:02:28.773Z,0.70
2018-10-11T01:04:57.535Z,0.80
2018-10-11T01:07:26.341Z,0.67
2018-10-11T01:09:55.753Z,0.73
2018-10-11T01:12:24.641Z,0.40
2018-10-11T01:14:53.244Z,0.70
2018-10-11T01:17:22.479Z,0.63
2018-10-11T01:19:51.453Z,0.70
2018-10-11T01:22:20.606Z,1.10
2018-10-11T01:24:49.478Z,0.90
2018-10-11T01:27:18.297Z,0.80
2018-10-11T01:29:47.291Z,0.87
2018-10-11T01:32:16.376Z,0.80
2018-10-11T01:34:45.406Z,0.70
2018-10-11T01:37:14.294Z,0.57
2018-10-11T01:39:43.228Z,0.70
2018-10-11T01:42:11.953Z,0.70
2018-10-11T01:44:41.179Z,0.90
2018-10-11T01:47:10.380Z,0.60
2018-10-11T01:49:39.171Z,0.67
2018-10-11T01:52:08.026Z,0.83
2018-10-11T01:54:37.005Z,1.03
2018-10-11T01:57:05.985Z,1.10
2018-10-11T01:59:34.937Z,0.77
2018-10-11T02:02:04.055Z,0.67
2018-10-11T02:04:32.718Z,0.53
2018-10-11T02:07:01.682Z,0.90
2018-10-11T02:09:30.499Z,0.70
2018-10-11T02:11:59.426Z,0.60
2018-10-11T02:14:28.304Z,0.80
2018-10-11T02:16:57.105Z,0.97
2018-10-11T02:19:25.893Z,0.60
2018-10-11T02:21:54.809Z,0.60
2018-10-11T02:24:23.852Z,0.40
2018-10-11T02:26:52.571Z,0.77
2018-10-11T02:29:21.447Z,0.50
2018-10-11T02:31:50.315Z,0.50
2018-10-11T02:34:19.322Z,0.70
2018-10-11T02:36:47.949Z,0.30
2018-10-11T02:39:16.649Z,0.30
2018-10-11T02:41:45.258Z,0.60
2018-10-11T02:44:14.021Z,0.40
2018-10-11T02:46:42.866Z,0.50
2018-10-11T02:49:11.709Z,0.63
2018-10-11T02:51:40.472Z,0.67
2018-10-11T02:54:09.367Z,0.50
2018-10-11T02:56:38.122Z,0.60
2018-10-11T02:59:17.791Z,0.50
2018-10-11T03:01:46.655Z,0.60
2018-10-11T03:04:15.616Z,0.77
2018-10-11T03:06:44.466Z,0.57
2018-10-11T03:09:13.285Z,0.83
2018-10-11T03:11:42.018Z,0.83
2018-10-11T03:14:10.788Z,0.70
2018-10-11T03:16:39.469Z,0.73
2018-10-11T03:19:08.246Z,0.80
2018-10-11T03:21:37.300Z,0.50
2018-10-11T03:24:05.951Z,0.90
2018-10-11T03:26:34.836Z,0.80
2018-10-11T03:29:03.621Z,0.90
2018-10-11T03:31:32.455Z,1.00
2018-10-11T03:34:01.115Z,0.50
2018-10-11T03:36:30.060Z,0.70
2018-10-11T03:38:58.686Z,1.03
2018-10-11T03:41:27.317Z,1.47
2018-10-11T03:43:56.162Z,1.10
2018-10-11T03:46:24.868Z,0.83
2018-10-11T03:48:53.592Z,0.90
2018-10-11T03:51:22.362Z,0.90
2018-10-11T03:53:51.008Z,1.00
2018-10-11T03:56:20.170Z,0.90
2018-10-11T03:58:48.993Z,1.27
2018-10-11T04:01:17.865Z,1.53
2018-10-11T04:03:46.486Z,1.20
2018-10-11T04:06:15.157Z,1.83
2018-10-11T04:08:43.749Z,1.10
2018-10-11T04:11:12.486Z,1.37
2018-10-11T04:13:41.185Z,1.27
2018-10-11T04:16:09.957Z,1.60
2018-10-11T04:18:38.661Z,1.20
2018-10-11T04:21:07.741Z,1.40
2018-10-11T04:23:36.813Z,1.47
2018-10-11T04:26:05.680Z,2.07
2018-10-11T04:28:34.564Z,1.87
2018-10-11T04:31:03.305Z,2.13
2018-10-11T04:33:32.274Z,1.97
2018-10-11T04:36:01.106Z,1.93
2018-10-11T04:38:30.045Z,2.20
2018-10-11T04:40:58.919Z,1.30
2018-10-11T04:43:27.536Z,1.63
2018-10-11T04:45:56.245Z,1.50
2018-10-11T04:48:25.202Z,2.00
2018-10-11T04:50:53.895Z,2.20
2018-10-11T04:53:22.586Z,2.23
2018-10-11T04:55:51.237Z,1.73
2018-10-11T04:58:20.496Z,2.23
2018-10-11T05:00:49.297Z,1.60
2018-10-11T05:03:18.035Z,2.03
2018-10-11T05:05:46.872Z,1.50
2018-10-11T05:08:15.644Z,1.70
2018-10-11T05:10:45.127Z,2.70
2018-10-11T05:13:14.421Z,1.67
2018-10-11T05:15:44.049Z,2.03
2018-10-11T05:18:15.587Z,1.73
2018-10-11T05:20:44.316Z,1.70
2018-10-11T05:23:13.113Z,1.57
2018-10-11T05:25:41.876Z,1.60
2018-10-11T05:28:10.703Z,1.57
2018-10-11T05:30:44.023Z,2.03
2018-10-11T05:33:13.167Z,2.80
2018-10-11T05:35:42.168Z,3.13
2018-10-11T05:38:11.122Z,3.20
2018-10-11T05:40:40.329Z,2.70
2018-10-11T05:43:09.275Z,2.73
2018-10-11T05:45:38.572Z,3.13
2018-10-11T05:48:07.462Z,4.40
2018-10-11T05:50:36.459Z,3.73
2018-10-11T05:53:05.527Z,4.50
2018-10-11T05:55:34.547Z,3.03
2018-10-11T05:58:03.542Z,3.40
2018-10-11T06:00:32.639Z,4.47
2018-10-11T06:03:03.933Z,5.00
2018-10-11T06:08:08.739Z,2.97
2018-10-11T06:10:41.252Z,3.20
2018-10-11T06:13:10.977Z,4.03
2018-10-11T06:15:40.338Z,4.70
2018-10-11T06:18:09.364Z,4.60
2018-10-11T06:20:38.345Z,3.60
2018-10-11T06:23:07.319Z,4.03
2018-10-11T06:25:36.314Z,4.57
2018-10-11T06:28:05.364Z,3.23
2018-10-11T06:30:35.574Z,3.27
2018-10-11T06:33:04.682Z,3.00
2018-10-11T06:35:34.013Z,2.47
2018-10-11T06:38:03.644Z,2.40
2018-10-11T06:40:33.862Z,2.50
2018-10-11T06:43:02.905Z,2.27
2018-10-11T06:45:32.063Z,2.63
2018-10-11T06:48:02.586Z,3.50
2018-10-11T06:50:31.683Z,2.47
2018-10-11T06:53:00.913Z,2.17
2018-10-11T06:55:30.092Z,2.40
2018-10-11T06:57:59.285Z,2.73
2018-10-11T07:00:34.727Z,2.50
2018-10-11T07:03:03.839Z,2.53
2018-10-11T07:05:32.771Z,2.33
2018-10-11T07:08:02.151Z,2.83
2018-10-11T07:10:31.213Z,3.37
2018-10-11T07:13:00.521Z,2.80
2018-10-11T07:15:29.318Z,2.50
2018-10-11T07:17:58.671Z,3.03
2018-10-11T07:20:27.983Z,2.47
2018-10-11T07:22:56.912Z,2.47
2018-10-11T07:25:25.944Z,2.70
2018-10-11T07:27:55.328Z,1.90
2018-10-11T07:30:24.309Z,2.10
2018-10-11T07:32:53.218Z,2.10
2018-10-11T07:35:22.228Z,2.07
2018-10-11T07:37:51.018Z,2.50
2018-10-11T07:40:20.058Z,2.10
2018-10-11T07:42:49.056Z,2.00
2018-10-11T07:45:18.103Z,2.30
2018-10-11T07:47:47.102Z,1.93
2018-10-11T07:50:16.085Z,1.83
2018-10-11T07:52:45.210Z,1.77
2018-10-11T07:55:14.224Z,1.30
2018-10-11T07:57:43.035Z,0.93
2018-10-11T08:00:13.364Z,1.20
2018-10-11T08:02:43.443Z,1.20
2018-10-11T08:05:12.939Z,1.50
2018-10-11T08:07:41.870Z,1.30
2018-10-11T08:10:10.925Z,1.50
2018-10-11T08:12:39.974Z,1.40
2018-10-11T08:15:08.750Z,1.50
2018-10-11T08:17:38.242Z,1.50
2018-10-11T08:20:07.019Z,1.83
2018-10-11T08:22:35.959Z,1.80
2018-10-11T08:25:05.155Z,2.07
2018-10-11T08:27:34.048Z,1.20
2018-10-11T08:30:03.041Z,1.43
2018-10-11T08:32:32.132Z,1.53
2018-10-11T08:35:00.926Z,1.30
2018-10-11T08:37:30.035Z,1.20
2018-10-11T08:39:58.863Z,1.20
2018-10-11T08:42:27.827Z,1.03
2018-10-11T08:44:56.718Z,0.90
2018-10-11T08:47:25.578Z,1.10
2018-10-11T08:49:54.494Z,1.63
2018-10-11T08:52:23.689Z,1.10
2018-10-11T08:54:53.328Z,1.17
2018-10-11T08:57:22.884Z,0.90
2018-10-11T08:59:52.003Z,0.97
2018-10-11T09:02:20.756Z,1.07
2018-10-11T09:04:49.787Z,0.80
2018-10-11T09:07:18.846Z,0.70
2018-10-11T09:09:53.439Z,1.10
2018-10-11T09:12:16.780Z,0.77
2018-10-11T09:14:45.527Z,0.70
2018-10-11T09:17:15.043Z,0.90
2018-10-11T09:19:44.282Z,0.97
2018-10-11T09:22:14.341Z,0.60
2018-10-11T09:24:43.623Z,1.10
2018-10-11T09:27:14.212Z,0.60
2018-10-11T09:29:43.360Z,0.50
2018-10-11T09:32:12.125Z,1.00
2018-10-11T09:34:41.207Z,1.27
2018-10-11T09:37:10.329Z,1.00
2018-10-11T09:39:39.156Z,0.93
2018-10-11T09:42:08.079Z,0.73
2018-10-11T09:44:36.863Z,0.93
2018-10-11T09:47:05.749Z,1.00
2018-10-11T09:49:34.834Z,1.00
2018-10-11T09:52:03.955Z,1.17
2018-10-11T09:54:33.027Z,1.00
2018-10-11T09:57:35.514Z,0.83
2018-10-11T10:00:09.351Z,0.80
2018-10-11T10:02:38.305Z,0.87
2018-10-11T10:05:07.303Z,1.00
2018-10-11T10:07:36.347Z,0.80
2018-10-11T10:10:05.983Z,1.00
2018-10-11T10:12:34.923Z,1.17
2018-10-11T10:15:04.155Z,0.90
2018-10-11T10:17:33.141Z,1.30
2018-10-11T10:20:02.301Z,0.90
2018-10-11T10:22:31.952Z,1.00
2018-10-11T10:25:01.235Z,0.83
2018-10-11T10:27:30.550Z,1.13
2018-10-11T10:29:59.683Z,1.13
2018-10-11T10:32:28.961Z,0.87
2018-10-11T10:34:58.216Z,0.57
2018-10-11T10:37:27.894Z,0.60
2018-10-11T10:39:56.950Z,0.57
2018-10-11T10:42:26.267Z,0.97
2018-10-11T10:44:55.537Z,0.70
2018-10-11T10:47:24.854Z,0.67
2018-10-11T10:49:53.811Z,1.53
2018-10-11T10:52:22.834Z,0.50
2018-10-11T10:54:51.988Z,0.80
2018-10-11T10:57:20.848Z,0.50
2018-10-11T10:59:49.763Z,0.63
2018-10-11T11:02:18.810Z,0.60
2018-10-11T11:04:47.549Z,0.90
2018-10-11T11:07:16.619Z,0.60
2018-10-11T11:09:45.383Z,1.00
2018-10-11T11:12:14.366Z,0.57
2018-10-11T11:14:43.220Z,0.60
2018-10-11T11:17:12.275Z,0.90
2018-10-11T11:19:41.254Z,0.97
2018-10-11T11:22:10.257Z,1.57
2018-10-11T11:24:39.318Z,0.60
2018-10-11T11:27:08.042Z,0.83
2018-10-11T11:29:36.774Z,0.60
2018-10-11T11:32:05.446Z,1.00
2018-10-11T11:34:34.347Z,1.13
2018-10-11T11:37:03.319Z,2.47
2018-10-11T11:39:32.198Z,1.20
2018-10-11T11:42:01.239Z,0.50
2018-10-11T11:44:30.098Z,0.60
2018-10-11T11:46:59.183Z,0.60
2018-10-11T11:49:28.279Z,0.87
2018-10-11T11:51:57.174Z,0.63
2018-10-11T11:54:26.609Z,0.90
2018-10-11T11:56:55.592Z,0.90
2018-10-11T11:59:24.465Z,0.70
2018-10-11T12:01:53.385Z,0.60
2018-10-11T12:04:22.102Z,2.17
2018-10-11T12:06:50.912Z,2.03
2018-10-11T12:09:19.645Z,0.80
2018-10-11T12:11:48.939Z,1.03
2018-10-11T12:14:17.964Z,1.07
2018-10-11T12:16:47.112Z,1.57
2018-10-11T12:19:16.247Z,2.37
2018-10-11T12:21:45.231Z,0.83
2018-10-11T12:24:14.391Z,1.43
2018-10-11T12:26:43.075Z,1.00
2018-10-11T12:29:12.080Z,0.60
2018-10-11T12:31:41.105Z,0.43
2018-10-11T12:34:10.431Z,0.60
2018-10-11T12:36:39.510Z,0.43
2018-10-11T12:39:09.588Z,0.90
2018-10-11T12:41:39.089Z,0.40
2018-10-11T12:44:08.167Z,0.70
2018-10-11T12:46:38.164Z,1.10
2018-10-11T12:49:06.107Z,0.60
2018-10-11T12:51:35.102Z,0.80
2018-10-11T12:54:04.185Z,1.03
2018-10-11T12:56:33.613Z,1.07
2018-10-11T12:59:02.587Z,1.20
2018-10-11T13:01:31.309Z,2.03
2018-10-11T13:04:00.255Z,1.10
2018-10-11T13:06:29.477Z,0.93
2018-10-11T13:08:58.519Z,0.70
2018-10-11T13:11:27.527Z,1.03
2018-10-11T13:13:56.507Z,0.83
2018-10-11T13:16:25.556Z,2.07
2018-10-11T13:18:54.404Z,0.50
2018-10-11T13:21:23.592Z,0.57
2018-10-11T13:23:52.284Z,0.93
2018-10-11T13:26:21.290Z,0.40
2018-10-11T13:28:50.225Z,0.93
2018-10-11T13:31:19.586Z,0.43
2018-10-11T13:33:51.819Z,0.87
2018-10-11T13:36:17.507Z,0.50
2018-10-11T13:38:46.415Z,0.50
2018-10-11T13:41:15.476Z,1.10
2018-10-11T13:43:44.508Z,0.60
2018-10-11T13:46:13.645Z,0.63
2018-10-11T13:48:42.513Z,0.33
2018-10-11T13:51:11.552Z,0.40
2018-10-11T13:53:40.363Z,0.50
2018-10-11T13:56:09.527Z,0.73
2018-10-11T13:58:38.268Z,1.40
2018-10-11T14:01:07.661Z,0.40
2018-10-11T14:03:36.592Z,0.50
2018-10-11T14:06:05.665Z,0.80
2018-10-11T14:08:34.754Z,0.80
2018-10-11T14:11:03.866Z,0.90
2018-10-11T14:13:33.247Z,1.50
2018-10-11T14:16:02.385Z,1.17
2018-10-11T14:18:31.134Z,1.00
2018-10-11T14:21:00.481Z,2.70
2018-10-11T14:23:29.712Z,2.20
2018-10-11T14:25:58.641Z,3.10
2018-10-11T14:28:27.908Z,3.27
2018-10-11T14:30:57.250Z,2.67
2018-10-11T14:33:26.305Z,2.67
2018-10-11T14:35:55.279Z,2.70
2018-10-11T14:38:24.195Z,2.57
2018-10-11T14:40:53.336Z,1.97
2018-10-11T14:43:22.253Z,1.83
2018-10-11T14:45:51.096Z,1.60
2018-10-11T14:48:19.917Z,1.77
2018-10-11T14:50:48.771Z,1.50
2018-10-11T14:53:17.801Z,1.30
2018-10-11T14:55:46.716Z,1.80
2018-10-11T14:58:15.802Z,2.50
2018-10-11T15:00:44.741Z,2.33
2018-10-11T15:03:13.601Z,2.80
2018-10-11T15:05:42.829Z,2.73
2018-10-11T15:08:11.510Z,2.20
2018-10-11T15:10:40.481Z,3.20
2018-10-11T15:13:09.582Z,2.47
2018-10-11T15:15:38.703Z,2.03
2018-10-11T15:18:38.851Z,1.90
2018-10-11T15:21:07.963Z,2.17
2018-10-11T15:23:36.952Z,1.83
2018-10-11T15:26:05.946Z,2.17
2018-10-11T15:28:35.064Z,2.20
2018-10-11T15:31:03.902Z,2.10
2018-10-11T15:33:32.583Z,2.27
2018-10-11T15:36:01.837Z,1.93
2018-10-11T15:38:30.894Z,2.77
2018-10-11T15:41:00.182Z,2.20
2018-10-11T15:43:29.496Z,1.70
2018-10-11T15:45:58.612Z,2.20
2018-10-11T15:48:27.828Z,2.17
2018-10-11T15:50:56.956Z,2.83
2018-10-11T15:53:25.804Z,2.60
2018-10-11T15:55:54.613Z,2.90
2018-10-11T15:58:23.511Z,2.30
2018-10-11T16:00:52.258Z,2.60
2018-10-11T16:03:21.042Z,2.10
2018-10-11T16:05:49.987Z,2.63
2018-10-11T16:08:19.056Z,2.00
2018-10-11T16:10:48.448Z,2.58
2018-10-11T16:13:17.079Z,2.33
2018-10-11T16:15:45.936Z,2.00
2018-10-11T16:18:15.013Z,1.60
2018-10-11T16:20:43.962Z,1.73
2018-10-11T16:23:12.974Z,1.90
2018-10-11T16:25:41.823Z,1.87
2018-10-11T16:28:10.785Z,1.70
2018-10-11T16:30:39.794Z,1.67
2018-10-11T16:33:09.248Z,1.83
2018-10-11T16:35:38.297Z,3.20
2018-10-11T16:38:07.129Z,2.10
2018-10-11T16:40:36.062Z,1.90
2018-10-11T16:43:05.329Z,1.47
2018-10-11T16:45:34.308Z,1.73
2018-10-11T16:48:03.727Z,1.50
2018-10-11T16:50:32.915Z,1.53
2018-10-11T16:53:02.336Z,1.80
2018-10-11T16:55:31.430Z,2.93
2018-10-11T16:58:00.410Z,2.63
2018-10-11T17:00:29.468Z,2.57
2018-10-11T17:02:58.577Z,2.30
2018-10-11T17:05:27.921Z,2.23
2018-10-11T17:07:57.021Z,1.70
2018-10-11T17:10:26.072Z,1.50
2018-10-11T17:12:55.072Z,1.60
2018-10-11T17:15:24.195Z,2.40
2018-10-11T17:17:53.208Z,1.70
2018-10-11T17:20:22.508Z,2.27
2018-10-11T17:22:51.499Z,2.40
2018-10-11T17:25:20.833Z,2.00
2018-10-11T17:27:49.900Z,2.60
2018-10-11T17:30:19.163Z,2.73
2018-10-11T17:32:48.486Z,2.10
2018-10-11T17:35:17.633Z,2.50
2018-10-11T17:37:46.593Z,2.53
2018-10-11T17:40:15.746Z,2.30
2018-10-11T17:42:44.994Z,2.00
2018-10-11T17:45:13.998Z,2.23
2018-10-11T17:47:42.686Z,2.10
2018-10-11T17:50:11.906Z,2.83
2018-10-11T17:52:40.981Z,2.20
2018-10-11T17:55:10.071Z,2.87
2018-10-11T17:57:39.043Z,2.80
2018-10-11T18:00:08.269Z,2.70
2018-10-11T18:02:37.311Z,2.93
2018-10-11T18:05:06.830Z,3.13
2018-10-11T18:07:36.101Z,3.70
2018-10-11T18:10:05.694Z,3.10
2018-10-11T18:12:34.857Z,3.13
2018-10-11T18:15:04.399Z,3.17
2018-10-11T18:17:33.707Z,3.30
2018-10-11T18:20:02.770Z,3.50
2018-10-11T18:22:32.203Z,4.03
2018-10-11T18:25:01.402Z,3.70
2018-10-11T18:27:36.790Z,3.87
2018-10-11T18:30:06.802Z,3.70
2018-10-11T18:32:36.409Z,3.70
2018-10-11T18:35:05.915Z,3.70
2018-10-11T18:37:35.072Z,3.57
2018-10-11T18:40:04.069Z,3.50
2018-10-11T18:42:33.522Z,3.53
2018-10-11T18:45:02.781Z,3.43
2018-10-11T18:47:31.999Z,3.23
2018-10-11T18:50:01.706Z,3.37
2018-10-11T18:52:31.029Z,3.57
2018-10-11T18:54:59.868Z,3.13
2018-10-11T18:57:28.870Z,3.60
2018-10-11T18:59:57.910Z,3.37
2018-10-11T19:02:26.880Z,3.20
2018-10-11T19:04:55.913Z,3.33
2018-10-11T19:07:25.024Z,3.07
2018-10-11T19:09:53.961Z,3.03
2018-10-11T19:12:22.921Z,3.10
2018-10-11T19:14:52.817Z,3.13
2018-10-11T19:17:23.120Z,2.80
2018-10-11T19:19:53.454Z,3.33
2018-10-11T19:22:23.527Z,2.90
2018-10-11T19:24:53.971Z,3.43
2018-10-11T19:27:23.013Z,3.17
2018-10-11T19:29:53.200Z,3.17
2018-10-11T19:32:23.157Z,3.63
2018-10-11T19:34:52.458Z,3.20
2018-10-11T19:37:22.691Z,2.97
2018-10-11T19:39:53.299Z,3.27
2018-10-11T19:42:23.261Z,3.33
2018-10-11T19:44:52.411Z,2.87
2018-10-11T19:47:22.027Z,3.27
2018-10-11T19:49:51.749Z,3.00
2018-10-11T19:52:21.151Z,2.70
2018-10-11T19:54:49.924Z,2.60
2018-10-11T19:57:18.797Z,2.97
2018-10-11T19:59:48.023Z,2.60
2018-10-11T20:02:17.506Z,2.23
2018-10-11T20:04:47.136Z,2.80
2018-10-11T20:07:16.909Z,2.70
2018-10-11T20:09:46.376Z,2.43
2018-10-11T20:12:15.703Z,2.40
2018-10-11T20:14:45.337Z,2.13
2018-10-11T20:17:14.541Z,2.40
2018-10-11T20:19:43.951Z,2.50
2018-10-11T20:22:14.448Z,2.30
2018-10-11T20:24:45.103Z,2.40
2018-10-11T20:27:14.723Z,2.23
2018-10-11T20:29:43.836Z,2.00
2018-10-11T20:32:13.283Z,1.80
2018-10-11T20:34:43.131Z,1.60
2018-10-11T20:37:12.501Z,1.73
2018-10-11T20:39:42.842Z,2.03
2018-10-11T20:42:12.037Z,1.67
2018-10-11T20:45:12.467Z,1.70
2018-10-11T20:47:41.632Z,1.53
2018-10-11T20:50:10.630Z,1.60
2018-10-11T20:52:39.622Z,1.43
2018-10-11T20:55:08.725Z,1.77
2018-10-11T20:57:37.890Z,1.60
2018-10-11T21:00:07.733Z,1.90
2018-10-11T21:02:37.283Z,1.53
2018-10-11T21:05:06.774Z,1.47
2018-10-11T21:07:36.681Z,1.23
2018-10-11T21:10:06.792Z,1.17
2018-10-11T21:12:36.846Z,1.40
2018-10-11T21:15:06.122Z,1.20
2018-10-11T21:17:37.163Z,1.30
2018-10-11T21:20:08.233Z,1.47
2018-10-11T21:22:37.960Z,1.23
2018-10-11T21:25:07.170Z,1.27
2018-10-11T21:27:36.564Z,1.40
2018-10-11T21:30:05.814Z,1.00
2018-10-11T21:32:35.883Z,1.20
2018-10-11T21:35:05.840Z,1.33
2018-10-11T21:37:35.886Z,1.23
2018-10-11T21:40:05.562Z,1.57
2018-10-11T21:42:35.685Z,1.40
2018-10-11T21:45:05.766Z,1.40
2018-10-11T21:47:34.869Z,1.40
2018-10-11T21:50:04.783Z,1.33
2018-10-11T21:52:35.388Z,1.20
2018-10-11T21:55:05.201Z,1.20
2018-10-11T21:57:35.401Z,1.37
2018-10-11T22:00:05.903Z,1.30
2018-10-11T22:02:35.683Z,1.40
2018-10-11T22:05:04.832Z,1.40
2018-10-11T22:07:33.800Z,1.20
2018-10-11T22:10:02.755Z,1.60
2018-10-11T22:12:31.888Z,1.77
2018-10-11T22:15:01.189Z,1.40
2018-10-11T22:17:30.185Z,1.30
2018-10-11T22:19:59.451Z,1.30
2018-10-11T22:22:28.776Z,1.43
2018-10-11T22:24:57.645Z,1.30
2018-10-11T22:27:26.746Z,1.47
2018-10-11T22:29:55.671Z,1.70
2018-10-11T22:32:24.467Z,1.43
2018-10-11T22:34:53.279Z,1.40
2018-10-11T22:37:22.217Z,1.40
2018-10-11T22:39:51.224Z,1.27
2018-10-11T22:42:20.091Z,1.20
2018-10-11T22:44:49.194Z,1.80
2018-10-11T22:47:18.214Z,1.40
2018-10-11T22:49:47.171Z,1.17
2018-10-11T22:52:16.239Z,1.40
2018-10-11T22:54:45.252Z,1.30
2018-10-11T22:57:14.069Z,1.20
2018-10-11T22:59:42.818Z,1.20
2018-10-11T23:02:11.513Z,1.20
2018-10-11T23:04:40.603Z,1.33
2018-10-11T23:07:09.837Z,1.47
2018-10-11T23:09:39.074Z,1.40
2018-10-11T23:12:08.223Z,1.33
2018-10-11T23:14:37.250Z,1.30
2018-10-11T23:17:06.022Z,1.10
2018-10-11T23:19:34.975Z,1.50
2018-10-11T23:22:03.903Z,1.40
2018-10-11T23:24:32.926Z,1.43
2018-10-11T23:27:01.840Z,1.20
2018-10-11T23:29:30.758Z,1.23
2018-10-11T23:31:59.917Z,1.17
2018-10-11T23:34:28.688Z,1.67
2018-10-11T23:36:57.430Z,1.50
2018-10-11T23:39:26.490Z,1.53
2018-10-11T23:41:55.391Z,1.70
2018-10-11T23:44:24.101Z,1.50
2018-10-11T23:46:52.988Z,1.50
2018-10-11T23:49:22.007Z,1.77
2018-10-11T23:51:50.858Z,1.40
2018-10-11T23:54:19.855Z,1.33
2018-10-11T23:56:48.769Z,1.30
2018-10-11T23:59:17.551Z,1.50
